Aeroporto :
LOGIN :

Iscrizione | Disclaimer

   EN    FR    IT 

 










Sommario :    VFR   VFR Marginale   IFR   IFR Intensivo   IFR Molto Intensivo
Visibilità : 
Base nubi : 
>= 8 km
>= 3000ft
5 / 8 km
1000 / 3000 ft
1500m / 5 km
500 / 1000 ft
800 / 1500m
200 / 500 ft
< 800m
< 200 ft
Simboli :   Temporali  Nebbia  Neve Forte  Precipitazioni Forti  Vento > 20 kt
SIGMETs :   Varie  Temporali  Ghiacco  Turbolenza  Onda orograficha  Ceneri Vulcaniche






- Altitudine del aeroporto : 794 ft


LKCV - Čáslav Air Base

ULTIMO METAR :
  • 021600Z 23007KT CAVOK 12/M07 Q1009 NOSIG

METARs OBSOLETI :
  • 021500Z VRB06KT CAVOK 13/M07 Q1009 NOSIG RMK BLU BLU
  • 021430Z 27006KT 240V330 CAVOK 12/M06 Q1009 NOSIG RMK BLU BLU
  • 021400Z 24007KT CAVOK 12/M07 Q1010 NOSIG RMK BLU BLU

TAF TAF LKCV
Valido dal 02 a 12 ore il 03 a 12 ore UTC


021100Z 0212/0312 01004KT CAVOK
BECMG 0213/0215 22006KT
BECMG 0300/0303 26010KT
BECMG 0306/0308 BKN030
TEMPO 0310/0312 30014KT 7000 SHRA BKN020



MetMap, La meteo Aeronautica in un colpo d'occhio ! - Copyright ORBIFLY Dicembre 2007 - Disclaimer

ORBIFLY MET'MAP TEAM :

Programmazione e sviluppo : Alexandra Zaïnal
Concezione : Baudouin d'Aumeries
Aiuto per la programmazione : Marc-Olivier Méhu
Supporto tecnico e logistico : Manuel Goepfert
Aiuto per la traduzione : Arnaldo La Scala

Contatto : metmap@orbifly.com




FONTI E CREDITI :

   NOAA